sensor_id;sensor_type;location;lat;lon;timestamp;pressure;altitude;pressure_sealevel;temperature;humidity
36692;BME280;22678;52.052;4.242;2022-11-18T00:00:03;99392.19;;;8.74;97.76
36692;BME280;22678;52.052;4.242;2022-11-18T00:02:28;99381.94;;;8.65;97.77
36692;BME280;22678;52.052;4.242;2022-11-18T00:04:55;99345.66;;;8.46;97.88
36692;BME280;22678;52.052;4.242;2022-11-18T00:07:20;99358.66;;;8.51;97.84
36692;BME280;22678;52.052;4.242;2022-11-18T00:09:45;99373.38;;;8.56;98.02
36692;BME280;22678;52.052;4.242;2022-11-18T00:12:11;99375.97;;;8.58;98.03
36692;BME280;22678;52.052;4.242;2022-11-18T00:14:54;99394.19;;;8.63;98.24
36692;BME280;22678;52.052;4.242;2022-11-18T00:17:20;99393.25;;;8.65;98.32
36692;BME280;22678;52.052;4.242;2022-11-18T00:19:45;99371.88;;;8.46;98.36
36692;BME280;22678;52.052;4.242;2022-11-18T00:22:11;99409.88;;;8.66;98.30
36692;BME280;22678;52.052;4.242;2022-11-18T00:24:37;99384.00;;;8.50;98.50
36692;BME280;22678;52.052;4.242;2022-11-18T00:27:02;99404.75;;;8.59;98.58
36692;BME280;22678;52.052;4.242;2022-11-18T00:29:27;99404.88;;;8.53;98.95
36692;BME280;22678;52.052;4.242;2022-11-18T00:31:54;99402.28;;;8.53;98.59
36692;BME280;22678;52.052;4.242;2022-11-18T00:34:19;99416.97;;;8.61;98.64
36692;BME280;22678;52.052;4.242;2022-11-18T00:36:45;99402.41;;;8.47;98.71
36692;BME280;22678;52.052;4.242;2022-11-18T00:39:13;99416.38;;;8.48;98.83
36692;BME280;22678;52.052;4.242;2022-11-18T00:41:39;99424.13;;;8.52;98.96
36692;BME280;22678;52.052;4.242;2022-11-18T00:44:23;99450.13;;;8.62;98.88
36692;BME280;22678;52.052;4.242;2022-11-18T00:46:48;99447.59;;;8.58;98.92
36692;BME280;22678;52.052;4.242;2022-11-18T00:49:13;99422.63;;;8.39;98.94
36692;BME280;22678;52.052;4.242;2022-11-18T00:51:39;99432.19;;;8.41;99.10
36692;BME280;22678;52.052;4.242;2022-11-18T00:54:04;99429.53;;;8.43;99.18
36692;BME280;22678;52.052;4.242;2022-11-18T00:56:30;99428.69;;;8.42;99.03
36692;BME280;22678;52.052;4.242;2022-11-18T00:58:55;99456.50;;;8.50;99.21
36692;BME280;22678;52.052;4.242;2022-11-18T01:01:21;99480.78;;;8.58;99.15
36692;BME280;22678;52.052;4.242;2022-11-18T01:03:46;99466.13;;;8.49;99.39
36692;BME280;22678;52.052;4.242;2022-11-18T01:06:11;99467.88;;;8.49;99.36
36692;BME280;22678;52.052;4.242;2022-11-18T01:08:36;99448.09;;;8.34;99.32
36692;BME280;22678;52.052;4.242;2022-11-18T01:11:02;99437.75;;;8.28;99.35
36692;BME280;22678;52.052;4.242;2022-11-18T01:13:50;99489.63;;;8.52;99.53
36692;BME280;22678;52.052;4.242;2022-11-18T01:16:20;99467.25;;;8.36;99.51
36692;BME280;22678;52.052;4.242;2022-11-18T01:18:45;99485.44;;;8.42;99.45
36692;BME280;22678;52.052;4.242;2022-11-18T01:21:11;99476.06;;;8.32;99.82
36692;BME280;22678;52.052;4.242;2022-11-18T01:23:37;99491.63;;;8.39;99.77
36692;BME280;22678;52.052;4.242;2022-11-18T01:26:08;99504.69;;;8.41;99.72
36692;BME280;22678;52.052;4.242;2022-11-18T01:28:34;99475.41;;;8.22;99.65
36692;BME280;22678;52.052;4.242;2022-11-18T01:31:07;99494.44;;;8.29;99.79
36692;BME280;22678;52.052;4.242;2022-11-18T01:33:33;99489.28;;;8.25;99.86
36692;BME280;22678;52.052;4.242;2022-11-18T01:35:59;99511.84;;;8.33;99.81
36692;BME280;22678;52.052;4.242;2022-11-18T01:38:24;99507.47;;;8.32;100.00
36692;BME280;22678;52.052;4.242;2022-11-18T01:40:50;99511.91;;;8.30;99.86
36692;BME280;22678;52.052;4.242;2022-11-18T01:43:17;99510.22;;;8.25;99.74
36692;BME280;22678;52.052;4.242;2022-11-18T01:45:45;99536.13;;;8.41;100.00
36692;BME280;22678;52.052;4.242;2022-11-18T01:48:12;99544.03;;;8.39;99.92
36692;BME280;22678;52.052;4.242;2022-11-18T01:50:46;99532.63;;;8.40;100.00
36692;BME280;22678;52.052;4.242;2022-11-18T01:53:22;99544.03;;;8.39;100.00
36692;BME280;22678;52.052;4.242;2022-11-18T01:55:51;99537.06;;;8.37;100.00
36692;BME280;22678;52.052;4.242;2022-11-18T01:58:26;99546.69;;;8.38;100.00
36692;BME280;22678;52.052;4.242;2022-11-18T02:00:52;99542.34;;;8.35;100.00
36692;BME280;22678;52.052;4.242;2022-11-18T02:03:18;99502.69;;;8.10;100.00
36692;BME280;22678;52.052;4.242;2022-11-18T02:05:46;99542.50;;;8.28;100.00
36692;BME280;22678;52.052;4.242;2022-11-18T02:08:13;99550.25;;;8.34;100.00
36692;BME280;22678;52.052;4.242;2022-11-18T02:10:39;99546.91;;;8.25;100.00
36692;BME280;22678;52.052;4.242;2022-11-18T02:13:04;99556.41;;;8.31;100.00
36692;BME280;22678;52.052;4.242;2022-11-18T02:18:25;99562.56;;;8.29;100.00
36692;BME280;22678;52.052;4.242;2022-11-18T02:20:55;99560.06;;;8.22;100.00
36692;BME280;22678;52.052;4.242;2022-11-18T02:26:26;99569.59;;;8.27;100.00
36692;BME280;22678;52.052;4.242;2022-11-18T02:28:59;99573.09;;;8.25;100.00
36692;BME280;22678;52.052;4.242;2022-11-18T02:31:34;99573.22;;;8.19;100.00
36692;BME280;22678;52.052;4.242;2022-11-18T02:34:12;99574.88;;;8.23;100.00
36692;BME280;22678;52.052;4.242;2022-11-18T02:36:45;99569.84;;;8.14;100.00
36692;BME280;22678;52.052;4.242;2022-11-18T02:39:23;99579.28;;;8.21;100.00
36692;BME280;22678;52.052;4.242;2022-11-18T02:41:50;99574.94;;;8.20;100.00
36692;BME280;22678;52.052;4.242;2022-11-18T02:44:18;99579.28;;;8.21;100.00
36692;BME280;22678;52.052;4.242;2022-11-18T02:46:50;99573.22;;;8.19;100.00
36692;BME280;22678;52.052;4.242;2022-11-18T02:49:21;99577.59;;;8.19;100.00
36692;BME280;22678;52.052;4.242;2022-11-18T02:51:48;99582.78;;;8.22;100.00
36692;BME280;22678;52.052;4.242;2022-11-18T02:54:16;99581.88;;;8.21;100.00
36692;BME280;22678;52.052;4.242;2022-11-18T02:56:42;99595.81;;;8.25;100.00
36692;BME280;22678;52.052;4.242;2022-11-18T02:59:08;99589.66;;;8.28;100.00
36692;BME280;22678;52.052;4.242;2022-11-18T03:01:34;99584.41;;;8.28;100.00
36692;BME280;22678;52.052;4.242;2022-11-18T03:04:00;99587.09;;;8.24;100.00
36692;BME280;22678;52.052;4.242;2022-11-18T03:06:34;99582.72;;;8.25;100.00
36692;BME280;22678;52.052;4.242;2022-11-18T03:15:02;99600.81;;;8.37;100.00
36692;BME280;22678;52.052;4.242;2022-11-18T03:17:54;99601.66;;;8.39;100.00
36692;BME280;22678;52.052;4.242;2022-11-18T03:20:35;99612.09;;;8.41;100.00
36692;BME280;22678;52.052;4.242;2022-11-18T03:23:23;99603.31;;;8.42;100.00
36692;BME280;22678;52.052;4.242;2022-11-18T03:26:04;99598.16;;;8.39;100.00
36692;BME280;22678;52.052;4.242;2022-11-18T03:28:43;99620.75;;;8.46;100.00
36692;BME280;22678;52.052;4.242;2022-11-18T03:31:15;99616.44;;;8.45;100.00
36692;BME280;22678;52.052;4.242;2022-11-18T03:33:49;99617.31;;;8.42;100.00
36692;BME280;22678;52.052;4.242;2022-11-18T03:36:17;99628.56;;;8.49;100.00
36692;BME280;22678;52.052;4.242;2022-11-18T03:38:47;99616.44;;;8.42;100.00
36692;BME280;22678;52.052;4.242;2022-11-18T03:41:16;99617.38;;;8.39;100.00
36692;BME280;22678;52.052;4.242;2022-11-18T03:43:48;99623.53;;;8.37;100.00
36692;BME280;22678;52.052;4.242;2022-11-18T03:46:21;99633.88;;;8.45;100.00
36692;BME280;22678;52.052;4.242;2022-11-18T03:48:51;99621.72;;;8.39;100.00
36692;BME280;22678;52.052;4.242;2022-11-18T03:51:22;99630.47;;;8.39;100.00
36692;BME280;22678;52.052;4.242;2022-11-18T03:53:57;99632.16;;;8.42;100.00
36692;BME280;22678;52.052;4.242;2022-11-18T03:56:29;99626.09;;;8.40;100.00
36692;BME280;22678;52.052;4.242;2022-11-18T03:59:20;99639.03;;;8.49;100.00
36692;BME280;22678;52.052;4.242;2022-11-18T04:04:14;99637.38;;;8.42;100.00
36692;BME280;22678;52.052;4.242;2022-11-18T04:06:49;99640.91;;;8.41;100.00
36692;BME280;22678;52.052;4.242;2022-11-18T04:09:21;99657.47;;;8.45;100.00
36692;BME280;22678;52.052;4.242;2022-11-18T04:11:54;99660.09;;;8.45;100.00
36692;BME280;22678;52.052;4.242;2022-11-18T04:14:30;99670.47;;;8.49;100.00
36692;BME280;22678;52.052;4.242;2022-11-18T04:16:57;99673.09;;;8.49;100.00
36692;BME280;22678;52.052;4.242;2022-11-18T04:19:22;99673.22;;;8.41;100.00
36692;BME280;22678;52.052;4.242;2022-11-18T04:21:48;99652.47;;;8.31;100.00
36692;BME280;22678;52.052;4.242;2022-11-18T04:24:13;99688.06;;;8.44;100.00
36692;BME280;22678;52.052;4.242;2022-11-18T04:26:39;99688.88;;;8.46;100.00
36692;BME280;22678;52.052;4.242;2022-11-18T04:29:04;99678.53;;;8.37;100.00
36692;BME280;22678;52.052;4.242;2022-11-18T04:31:29;99695.91;;;8.44;100.00
36692;BME280;22678;52.052;4.242;2022-11-18T04:33:54;99676.81;;;8.34;100.00
36692;BME280;22678;52.052;4.242;2022-11-18T04:36:20;99693.31;;;8.41;100.00
36692;BME280;22678;52.052;4.242;2022-11-18T04:38:45;99700.25;;;8.42;100.00
36692;BME280;22678;52.052;4.242;2022-11-18T04:41:11;99697.66;;;8.44;100.00
36692;BME280;22678;52.052;4.242;2022-11-18T04:43:36;99687.25;;;8.37;100.00
36692;BME280;22678;52.052;4.242;2022-11-18T04:46:01;99712.47;;;8.46;100.00
36692;BME280;22678;52.052;4.242;2022-11-18T04:48:27;99699.56;;;8.34;100.00
36692;BME280;22678;52.052;4.242;2022-11-18T04:50:52;99693.44;;;8.35;100.00
36692;BME280;22678;52.052;4.242;2022-11-18T04:53:17;99714.28;;;8.41;100.00
36692;BME280;22678;52.052;4.242;2022-11-18T04:55:42;99724.72;;;8.44;100.00
36692;BME280;22678;52.052;4.242;2022-11-18T04:58:08;99720.44;;;8.37;100.00
36692;BME280;22678;52.052;4.242;2022-11-18T05:00:33;99728.31;;;8.37;100.00
36692;BME280;22678;52.052;4.242;2022-11-18T05:02:58;99728.41;;;8.31;100.00
36692;BME280;22678;52.052;4.242;2022-11-18T05:05:23;99732.72;;;8.35;100.00
36692;BME280;22678;52.052;4.242;2022-11-18T05:07:50;99740.56;;;8.36;100.00
36692;BME280;22678;52.052;4.242;2022-11-18T05:10:15;99732.75;;;8.32;100.00
36692;BME280;22678;52.052;4.242;2022-11-18T05:12:41;99730.19;;;8.29;100.00
36692;BME280;22678;52.052;4.242;2022-11-18T05:15:17;99729.34;;;8.27;100.00
36692;BME280;22678;52.052;4.242;2022-11-18T05:17:44;99731.19;;;8.20;100.00
36692;BME280;22678;52.052;4.242;2022-11-18T05:20:10;99739.00;;;8.24;100.00
36692;BME280;22678;52.052;4.242;2022-11-18T05:22:36;99752.06;;;8.26;100.00
36692;BME280;22678;52.052;4.242;2022-11-18T05:25:02;99737.38;;;8.17;100.00
36692;BME280;22678;52.052;4.242;2022-11-18T05:27:27;99759.97;;;8.21;100.00
36692;BME280;22678;52.052;4.242;2022-11-18T05:29:53;99753.09;;;8.17;100.00
36692;BME280;22678;52.052;4.242;2022-11-18T05:32:18;99749.59;;;8.15;100.00
36692;BME280;22678;52.052;4.242;2022-11-18T05:34:43;99734.91;;;8.06;100.00
36692;BME280;22678;52.052;4.242;2022-11-18T05:37:09;99749.66;;;8.12;100.00
36692;BME280;22678;52.052;4.242;2022-11-18T05:39:34;99763.59;;;8.16;100.00
36692;BME280;22678;52.052;4.242;2022-11-18T05:42:01;99770.56;;;8.15;100.00
36692;BME280;22678;52.052;4.242;2022-11-18T05:44:44;99774.09;;;8.14;100.00
36692;BME280;22678;52.052;4.242;2022-11-18T05:47:10;99758.59;;;7.99;100.00
36692;BME280;22678;52.052;4.242;2022-11-18T05:49:35;99768.09;;;8.06;100.00
36692;BME280;22678;52.052;4.242;2022-11-18T05:52:01;99776.78;;;8.06;100.00
36692;BME280;22678;52.052;4.242;2022-11-18T05:54:26;99774.25;;;8.02;100.00
36692;BME280;22678;52.052;4.242;2022-11-18T05:56:51;99774.19;;;8.05;100.00
36692;BME280;22678;52.052;4.242;2022-11-18T05:59:17;99779.44;;;8.05;100.00
36692;BME280;22678;52.052;4.242;2022-11-18T06:04:23;99795.88;;;8.16;100.00
36692;BME280;22678;52.052;4.242;2022-11-18T06:06:53;99790.75;;;8.09;100.00
36692;BME280;22678;52.052;4.242;2022-11-18T06:09:22;99794.16;;;8.14;100.00
36692;BME280;22678;52.052;4.242;2022-11-18T06:11:52;99802.84;;;8.17;100.00
36692;BME280;22678;52.052;4.242;2022-11-18T06:14:25;99795.06;;;8.11;100.00
36692;BME280;22678;52.052;4.242;2022-11-18T06:16:55;99808.03;;;8.20;100.00
36692;BME280;22678;52.052;4.242;2022-11-18T06:19:23;99807.13;;;8.21;100.00
36692;BME280;22678;52.052;4.242;2022-11-18T06:21:48;99807.16;;;8.18;100.00
36692;BME280;22678;52.052;4.242;2022-11-18T06:24:14;99828.06;;;8.24;100.00
36692;BME280;22678;52.052;4.242;2022-11-18T06:26:41;99806.38;;;8.15;100.00
36692;BME280;22678;52.052;4.242;2022-11-18T06:29:09;99810.75;;;8.14;100.00
36692;BME280;22678;52.052;4.242;2022-11-18T06:31:35;99820.25;;;8.20;100.00
36692;BME280;22678;52.052;4.242;2022-11-18T06:34:01;99816.00;;;8.14;100.00
36692;BME280;22678;52.052;4.242;2022-11-18T06:36:26;99821.19;;;8.17;100.00
36692;BME280;22678;52.052;4.242;2022-11-18T06:38:51;99839.47;;;8.20;100.00
36692;BME280;22678;52.052;4.242;2022-11-18T06:41:16;99842.13;;;8.17;100.00
36692;BME280;22678;52.052;4.242;2022-11-18T06:43:42;99852.56;;;8.20;100.00
36692;BME280;22678;52.052;4.242;2022-11-18T06:46:12;99858.59;;;8.24;100.00
36692;BME280;22678;52.052;4.242;2022-11-18T06:48:57;99860.34;;;8.25;100.00
36692;BME280;22678;52.052;4.242;2022-11-18T06:51:22;99864.72;;;8.24;100.00
36692;BME280;22678;52.052;4.242;2022-11-18T06:53:48;99869.03;;;8.27;100.00
36692;BME280;22678;52.052;4.242;2022-11-18T06:56:16;99852.56;;;8.20;100.00
36692;BME280;22678;52.052;4.242;2022-11-18T06:58:42;99870.75;;;8.30;100.00
36692;BME280;22678;52.052;4.242;2022-11-18T07:03:35;99876.81;;;8.32;100.00
36692;BME280;22678;52.052;4.242;2022-11-18T07:06:01;99815.44;;;7.91;100.00
36692;BME280;22678;52.052;4.242;2022-11-18T07:08:26;99849.22;;;8.09;100.00
36692;BME280;22678;52.052;4.242;2022-11-18T07:10:52;99829.31;;;7.96;100.00
36692;BME280;22678;52.052;4.242;2022-11-18T07:13:17;99845.72;;;8.10;100.00
36692;BME280;22678;52.052;4.242;2022-11-18T07:15:43;99833.69;;;7.97;100.00
36692;BME280;22678;52.052;4.242;2022-11-18T07:18:08;99900.41;;;8.33;100.00
36692;BME280;22678;52.052;4.242;2022-11-18T07:20:33;99898.63;;;8.35;100.00
36692;BME280;22678;52.052;4.242;2022-11-18T07:22:58;99902.03;;;8.39;100.00
36692;BME280;22678;52.052;4.242;2022-11-18T07:25:24;99890.91;;;8.26;100.00
36692;BME280;22678;52.052;4.242;2022-11-18T07:27:49;99918.63;;;8.41;100.00
36692;BME280;22678;52.052;4.242;2022-11-18T07:30:14;99920.34;;;8.40;100.00
36692;BME280;22678;52.052;4.242;2022-11-18T07:32:40;99871.09;;;8.03;100.00
36692;BME280;22678;52.052;4.242;2022-11-18T07:35:05;99903.94;;;8.29;100.00
36692;BME280;22678;52.052;4.242;2022-11-18T07:37:31;99864.16;;;7.99;100.00
36692;BME280;22678;52.052;4.242;2022-11-18T07:39:56;99880.72;;;8.03;100.00
36692;BME280;22678;52.052;4.242;2022-11-18T07:42:24;99857.31;;;7.92;100.00
36692;BME280;22678;52.052;4.242;2022-11-18T07:44:49;99938.69;;;8.40;100.00
36692;BME280;22678;52.052;4.242;2022-11-18T07:47:14;99942.31;;;8.33;100.00
36692;BME280;22678;52.052;4.242;2022-11-18T07:49:40;99943.97;;;8.39;100.00
36692;BME280;22678;52.052;4.242;2022-11-18T07:52:05;99950.06;;;8.41;100.00
36692;BME280;22678;52.052;4.242;2022-11-18T07:54:30;99942.25;;;8.38;100.00
36692;BME280;22678;52.052;4.242;2022-11-18T07:56:56;99934.50;;;8.29;100.00
36692;BME280;22678;52.052;4.242;2022-11-18T07:59:21;99955.34;;;8.38;100.00
36692;BME280;22678;52.052;4.242;2022-11-18T08:01:46;99955.34;;;8.38;100.00
36692;BME280;22678;52.052;4.242;2022-11-18T08:04:11;99957.09;;;8.36;100.00
36692;BME280;22678;52.052;4.242;2022-11-18T08:06:37;99971.88;;;8.45;100.00
36692;BME280;22678;52.052;4.242;2022-11-18T08:09:04;99979.72;;;8.43;100.00
36692;BME280;22678;52.052;4.242;2022-11-18T08:11:30;99982.34;;;8.43;100.00
36692;BME280;22678;52.052;4.242;2022-11-18T08:13:56;99972.78;;;8.39;100.00
36692;BME280;22678;52.052;4.242;2022-11-18T08:16:23;99960.66;;;8.33;100.00
36692;BME280;22678;52.052;4.242;2022-11-18T08:18:49;99984.94;;;8.46;100.00
36692;BME280;22678;52.052;4.242;2022-11-18T08:21:16;99983.22;;;8.45;100.00
36692;BME280;22678;52.052;4.242;2022-11-18T08:23:42;99991.88;;;8.50;100.00
36692;BME280;22678;52.052;4.242;2022-11-18T08:26:13;99997.94;;;8.57;100.00
36692;BME280;22678;52.052;4.242;2022-11-18T08:28:40;99997.00;;;8.59;100.00
36692;BME280;22678;52.052;4.242;2022-11-18T08:31:23;100000.53;;;8.58;100.00
36692;BME280;22678;52.052;4.242;2022-11-18T08:33:53;100007.38;;;8.69;100.00
36692;BME280;22678;52.052;4.242;2022-11-18T08:36:22;100014.28;;;8.73;100.00
36692;BME280;22678;52.052;4.242;2022-11-18T08:38:48;100010.81;;;8.71;100.00
36692;BME280;22678;52.052;4.242;2022-11-18T08:41:17;100004.63;;;8.76;100.00
36692;BME280;22678;52.052;4.242;2022-11-18T08:43:43;100005.59;;;8.71;100.00
36692;BME280;22678;52.052;4.242;2022-11-18T08:46:08;100019.38;;;8.85;100.00
36692;BME280;22678;52.052;4.242;2022-11-18T08:48:34;100034.16;;;8.91;100.00
36692;BME280;22678;52.052;4.242;2022-11-18T08:51:00;100036.75;;;8.92;100.00
36692;BME280;22678;52.052;4.242;2022-11-18T08:53:25;100031.50;;;8.92;100.00
36692;BME280;22678;52.052;4.242;2022-11-18T08:55:58;100032.38;;;8.93;100.00
36692;BME280;22678;52.052;4.242;2022-11-18T08:58:24;100029.75;;;8.91;100.00
36692;BME280;22678;52.052;4.242;2022-11-18T09:00:50;100043.69;;;8.97;100.00
36692;BME280;22678;52.052;4.242;2022-11-18T09:03:15;100019.41;;;8.82;100.00
36692;BME280;22678;52.052;4.242;2022-11-18T09:05:40;100034.09;;;8.96;100.00
36692;BME280;22678;52.052;4.242;2022-11-18T09:08:06;100042.72;;;9.01;100.00
36692;BME280;22678;52.052;4.242;2022-11-18T09:10:31;100052.28;;;9.05;100.00
36692;BME280;22678;52.052;4.242;2022-11-18T09:12:58;100020.13;;;8.92;100.00
36692;BME280;22678;52.052;4.242;2022-11-18T09:15:24;100053.09;;;9.10;100.00
36692;BME280;22678;52.052;4.242;2022-11-18T09:17:50;100037.44;;;9.04;100.00
36692;BME280;22678;52.052;4.242;2022-11-18T09:20:16;100042.66;;;9.07;100.00
36692;BME280;22678;52.052;4.242;2022-11-18T09:22:42;100058.22;;;9.18;100.00
36692;BME280;22678;52.052;4.242;2022-11-18T09:25:08;100042.56;;;9.13;100.00
36692;BME280;22678;52.052;4.242;2022-11-18T09:27:33;100049.50;;;9.17;100.00
36692;BME280;22678;52.052;4.242;2022-11-18T09:29:58;100061.56;;;9.27;100.00
36692;BME280;22678;52.052;4.242;2022-11-18T09:32:24;100048.53;;;9.21;100.00
36692;BME280;22678;52.052;4.242;2022-11-18T09:34:49;100043.38;;;9.17;100.00
36692;BME280;22678;52.052;4.242;2022-11-18T09:37:15;100063.25;;;9.32;100.00
36692;BME280;22678;52.052;4.242;2022-11-18T09:39:40;100052.97;;;9.19;100.00
36692;BME280;22678;52.052;4.242;2022-11-18T09:47:39;100078.13;;;9.33;100.00
36692;BME280;22678;52.052;4.242;2022-11-18T09:50:08;100094.69;;;9.35;100.00
36692;BME280;22678;52.052;4.242;2022-11-18T09:53:09;100095.56;;;9.37;100.00
36692;BME280;22678;52.052;4.242;2022-11-18T09:55:40;100090.41;;;9.31;99.95
36692;BME280;22678;52.052;4.242;2022-11-18T09:58:06;100106.06;;;9.37;100.00
36692;BME280;22678;52.052;4.242;2022-11-18T10:00:32;100103.38;;;9.40;100.00
36692;BME280;22678;52.052;4.242;2022-11-18T10:03:03;100095.56;;;9.37;99.96
36692;BME280;22678;52.052;4.242;2022-11-18T10:06:03;100105.13;;;9.41;99.75
36692;BME280;22678;52.052;4.242;2022-11-18T10:11:23;100120.63;;;9.56;99.39
36692;BME280;22678;52.052;4.242;2022-11-18T10:24:21;100134.56;;;9.58;99.01
36692;BME280;22678;52.052;4.242;2022-11-18T10:26:46;100131.06;;;9.59;98.99
36692;BME280;22678;52.052;4.242;2022-11-18T10:29:12;100128.44;;;9.59;98.88
36692;BME280;22678;52.052;4.242;2022-11-18T10:31:39;100130.13;;;9.63;98.63
36692;BME280;22678;52.052;4.242;2022-11-18T10:34:17;100132.72;;;9.67;98.62
36692;BME280;22678;52.052;4.242;2022-11-18T10:36:43;100110.19;;;9.52;98.43
36692;BME280;22678;52.052;4.242;2022-11-18T10:39:21;100131.84;;;9.66;98.40
36692;BME280;22678;52.052;4.242;2022-11-18T10:41:49;100143.16;;;9.70;98.31
36692;BME280;22678;52.052;4.242;2022-11-18T10:46:55;100145.78;;;9.70;98.41
36692;BME280;22678;52.052;4.242;2022-11-18T10:49:38;100137.13;;;9.64;98.17
36692;BME280;22678;52.052;4.242;2022-11-18T10:52:09;100126.69;;;9.61;98.16
36692;BME280;22678;52.052;4.242;2022-11-18T10:54:35;100151.81;;;9.76;98.02
36692;BME280;22678;52.052;4.242;2022-11-18T10:57:05;100154.41;;;9.78;98.15
36692;BME280;22678;52.052;4.242;2022-11-18T11:04:58;100163.78;;;9.94;97.94
36692;BME280;22678;52.052;4.242;2022-11-18T11:07:34;100160.28;;;9.95;97.76
36692;BME280;22678;52.052;4.242;2022-11-18T11:12:49;100150.75;;;9.88;97.57
36692;BME280;22678;52.052;4.242;2022-11-18T11:15:21;100170.72;;;9.98;97.70
36692;BME280;22678;52.052;4.242;2022-11-18T11:17:53;100165.41;;;10.02;97.71
36692;BME280;22678;52.052;4.242;2022-11-18T11:20:39;100167.16;;;10.03;97.46
36692;BME280;22678;52.052;4.242;2022-11-18T11:23:09;100169.78;;;10.03;97.14
36692;BME280;22678;52.052;4.242;2022-11-18T11:28:33;100174.09;;;10.05;97.13
36692;BME280;22678;52.052;4.242;2022-11-18T11:31:15;100161.91;;;10.01;96.84
36692;BME280;22678;52.052;4.242;2022-11-18T11:41:21;100182.72;;;10.13;96.80
36692;BME280;22678;52.052;4.242;2022-11-18T11:50:08;100176.66;;;10.08;96.67
36692;BME280;22678;52.052;4.242;2022-11-18T11:52:43;100187.00;;;10.19;96.70
36692;BME280;22678;52.052;4.242;2022-11-18T11:55:20;100189.66;;;10.19;96.66
36692;BME280;22678;52.052;4.242;2022-11-18T11:58:08;100185.31;;;10.15;96.75
36692;BME280;22678;52.052;4.242;2022-11-18T12:00:42;100193.97;;;10.20;96.53
36692;BME280;22678;52.052;4.242;2022-11-18T12:05:48;100180.91;;;10.17;96.51
36692;BME280;22678;52.052;4.242;2022-11-18T12:08:22;100200.06;;;10.24;96.50
36692;BME280;22678;52.052;4.242;2022-11-18T12:13:52;100200.88;;;10.27;96.40
36692;BME280;22678;52.052;4.242;2022-11-18T12:16:42;100197.41;;;10.25;96.45
36692;BME280;22678;52.052;4.242;2022-11-18T12:19:13;100201.78;;;10.26;96.24
36692;BME280;22678;52.052;4.242;2022-11-18T12:24:24;100206.13;;;10.27;96.37
36692;BME280;22678;52.052;4.242;2022-11-18T12:26:51;100197.34;;;10.28;96.65
36692;BME280;22678;52.052;4.242;2022-11-18T12:31:42;100204.34;;;10.29;96.48
36692;BME280;22678;52.052;4.242;2022-11-18T12:36:46;100207.78;;;10.34;96.41
36692;BME280;22678;52.052;4.242;2022-11-18T12:44:47;100209.66;;;10.26;96.46
36692;BME280;22678;52.052;4.242;2022-11-18T12:54:55;100213.34;;;10.16;96.92
36692;BME280;22678;52.052;4.242;2022-11-18T12:57:27;100216.97;;;10.09;97.13
36692;BME280;22678;52.052;4.242;2022-11-18T12:59:54;100220.44;;;10.09;97.27
36692;BME280;22678;52.052;4.242;2022-11-18T13:05:11;100234.41;;;10.13;97.58
36692;BME280;22678;52.052;4.242;2022-11-18T13:07:50;100231.88;;;10.07;97.72
36692;BME280;22678;52.052;4.242;2022-11-18T13:10:48;100239.69;;;10.10;97.83
36692;BME280;22678;52.052;4.242;2022-11-18T13:13:25;100236.25;;;10.06;97.96
36692;BME280;22678;52.052;4.242;2022-11-18T13:15:53;100240.69;;;10.04;98.22
36692;BME280;22678;52.052;4.242;2022-11-18T13:18:52;100243.22;;;10.09;98.32
36692;BME280;22678;52.052;4.242;2022-11-18T13:21:23;100241.50;;;10.08;98.45
36692;BME280;22678;52.052;4.242;2022-11-18T13:24:15;100243.28;;;10.06;98.46
36692;BME280;22678;52.052;4.242;2022-11-18T13:26:43;100246.69;;;10.11;98.74
36692;BME280;22678;52.052;4.242;2022-11-18T13:30:24;100253.63;;;10.15;98.75
36692;BME280;22678;52.052;4.242;2022-11-18T13:32:26;100249.28;;;10.12;98.80
36692;BME280;22678;52.052;4.242;2022-11-18T13:34:54;100200.72;;;9.84;98.99
36692;BME280;22678;52.052;4.242;2022-11-18T13:37:30;100251.00;;;10.15;99.17
36692;BME280;22678;52.052;4.242;2022-11-18T13:39:56;100237.16;;;10.05;99.24
36692;BME280;22678;52.052;4.242;2022-11-18T13:42:23;100256.25;;;10.15;99.72
36692;BME280;22678;52.052;4.242;2022-11-18T13:44:54;100263.28;;;10.16;99.63
36692;BME280;22678;52.052;4.242;2022-11-18T13:47:37;100274.66;;;10.15;99.47
36692;BME280;22678;52.052;4.242;2022-11-18T13:55:12;100280.03;;;10.07;99.61
36692;BME280;22678;52.052;4.242;2022-11-18T13:57:39;100260.91;;;9.97;99.80
36692;BME280;22678;52.052;4.242;2022-11-18T14:00:14;100280.06;;;10.06;100.00
36692;BME280;22678;52.052;4.242;2022-11-18T14:02:44;100254.00;;;9.90;100.00
36692;BME280;22678;52.052;4.242;2022-11-18T14:05:17;100283.63;;;10.02;100.00
36692;BME280;22678;52.052;4.242;2022-11-18T14:07:55;100271.38;;;10.00;100.00
36692;BME280;22678;52.052;4.242;2022-11-18T14:10:32;100278.41;;;9.98;100.00
36692;BME280;22678;52.052;4.242;2022-11-18T14:12:59;100281.88;;;10.00;100.00
36692;BME280;22678;52.052;4.242;2022-11-18T14:17:58;100288.94;;;9.98;100.00
36692;BME280;22678;52.052;4.242;2022-11-18T14:20:26;100279.41;;;9.90;100.00
36692;BME280;22678;52.052;4.242;2022-11-18T14:22:55;100291.59;;;9.95;100.00
36692;BME280;22678;52.052;4.242;2022-11-18T14:25:26;100290.69;;;9.96;100.00
36692;BME280;22678;52.052;4.242;2022-11-18T14:33:21;100288.16;;;9.90;100.00
36692;BME280;22678;52.052;4.242;2022-11-18T14:35:50;100299.50;;;9.91;100.00
36692;BME280;22678;52.052;4.242;2022-11-18T14:38:21;100302.16;;;9.92;100.00
36692;BME280;22678;52.052;4.242;2022-11-18T14:40:53;100296.13;;;9.84;100.00
36692;BME280;22678;52.052;4.242;2022-11-18T14:43:18;100301.38;;;9.84;100.00
36692;BME280;22678;52.052;4.242;2022-11-18T14:45:44;100317.03;;;9.90;100.00
36692;BME280;22678;52.052;4.242;2022-11-18T14:48:18;100315.38;;;9.83;100.00
36692;BME280;22678;52.052;4.242;2022-11-18T14:50:44;100311.03;;;9.84;100.00
36692;BME280;22678;52.052;4.242;2022-11-18T14:53:11;100321.47;;;9.87;100.00
36692;BME280;22678;52.052;4.242;2022-11-18T14:55:37;100320.59;;;9.86;100.00